createdAt,value
2022-09-28T00:00:53.717Z,48.87
2022-09-28T00:06:18.789Z,49.12
2022-09-28T00:11:40.482Z,48.94
2022-09-28T00:17:02.100Z,49.16
2022-09-28T00:22:23.798Z,49.17
2022-09-28T00:27:50.171Z,48.66
2022-09-28T00:33:11.847Z,48.94
2022-09-28T00:38:33.492Z,49.19
2022-09-28T00:44:27.133Z,48.66
2022-09-28T00:49:59.975Z,49.18
2022-09-28T00:55:29.347Z,48.64
2022-09-28T01:00:51.158Z,49.06
2022-09-28T01:06:20.662Z,49.15
2022-09-28T01:11:43.232Z,49.17
2022-09-28T01:22:53.978Z,48.85
2022-09-28T01:28:18.391Z,48.71
2022-09-28T01:33:46.007Z,48.80
2022-09-28T01:39:33.276Z,49.08
2022-09-28T01:45:00.896Z,49.00
2022-09-28T01:50:26.201Z,48.92
2022-09-28T01:55:52.762Z,48.77
2022-09-28T02:01:21.507Z,49.09
2022-09-28T02:06:49.325Z,48.79
2022-09-28T02:12:16.366Z,48.92
2022-09-28T02:17:38.282Z,48.65
2022-09-28T02:23:02.953Z,48.79
2022-09-28T02:28:24.583Z,49.04
2022-09-28T02:33:47.688Z,48.60
2022-09-28T02:39:17.897Z,48.73
2022-09-28T02:44:50.605Z,48.75
2022-09-28T02:50:29.907Z,48.97
2022-09-28T02:56:13.080Z,48.58
2022-09-28T03:01:45.985Z,49.04
2022-09-28T03:07:26.022Z,49.02
2022-09-28T03:12:49.167Z,48.83
2022-09-28T03:18:11.082Z,49.06
2022-09-28T03:23:33.298Z,48.61
2022-09-28T03:28:54.942Z,48.75
2022-09-28T03:34:16.564Z,49.05
2022-09-28T03:39:38.259Z,48.99
2022-09-28T03:44:59.958Z,49.08
2022-09-28T03:50:21.685Z,48.89
2022-09-28T03:55:43.386Z,48.55
2022-09-28T04:01:10.758Z,49.00
2022-09-28T04:06:34.597Z,48.72
2022-09-28T04:12:03.836Z,48.65
2022-09-28T04:17:26.071Z,48.68
2022-09-28T04:22:47.751Z,48.81
2022-09-28T04:28:28.306Z,48.42
2022-09-28T04:33:50.006Z,48.77
2022-09-28T04:39:13.199Z,48.56
2022-09-28T04:44:34.846Z,48.94
2022-09-28T04:49:56.587Z,48.97
2022-09-28T04:55:18.306Z,48.78
2022-09-28T05:00:40.319Z,48.53
2022-09-28T05:06:01.996Z,48.91
2022-09-28T05:11:24.245Z,48.76
2022-09-28T05:16:46.039Z,48.56
2022-09-28T05:22:11.544Z,48.63
2022-09-28T05:27:33.191Z,48.61
2022-09-28T05:32:54.867Z,48.63
2022-09-28T05:38:16.532Z,48.13
2022-09-28T05:43:38.675Z,48.18
2022-09-28T05:49:00.571Z,48.21
2022-09-28T05:54:22.243Z,48.55
2022-09-28T05:59:43.996Z,48.54
2022-09-28T06:05:06.043Z,48.08
2022-09-28T06:10:28.803Z,48.34
2022-09-28T06:15:50.583Z,48.42
2022-09-28T06:21:13.628Z,48.58
2022-09-28T06:26:35.252Z,48.08
2022-09-28T06:31:56.976Z,48.31
2022-09-28T06:37:18.689Z,47.89
2022-09-28T06:42:40.414Z,48.08
2022-09-28T06:48:03.085Z,47.67
2022-09-28T06:53:24.771Z,47.64
2022-09-28T06:58:46.466Z,47.93
2022-09-28T07:04:08.148Z,47.68
2022-09-28T07:09:33.135Z,47.30
2022-09-28T07:14:57.622Z,47.71
2022-09-28T07:20:19.865Z,47.40
2022-09-28T07:25:45.668Z,47.46
2022-09-28T07:31:07.941Z,46.87
2022-09-28T07:36:30.443Z,43.86
2022-09-28T07:41:56.754Z,42.73
2022-09-28T07:47:30.878Z,42.73
2022-09-28T07:52:58.651Z,43.22
2022-09-28T07:58:20.934Z,44.05
2022-09-28T08:03:48.066Z,44.78
2022-09-28T08:09:09.872Z,44.85
2022-09-28T08:14:34.461Z,44.81
2022-09-28T08:20:14.464Z,45.20
2022-09-28T08:25:38.357Z,45.58
2022-09-28T08:31:03.786Z,45.51
2022-09-28T08:36:25.431Z,45.86
2022-09-28T08:42:12.304Z,45.43
2022-09-28T08:48:23.383Z,45.59
2022-09-28T08:53:54.014Z,45.82
2022-09-28T08:59:27.176Z,45.76
2022-09-28T09:04:51.734Z,45.74
2022-09-28T09:10:35.567Z,45.69
2022-09-28T09:16:19.301Z,45.88
2022-09-28T09:21:58.437Z,46.13
2022-09-28T09:27:40.271Z,45.50
2022-09-28T09:33:11.132Z,45.53
2022-09-28T09:39:14.554Z,45.44
2022-09-28T09:45:01.530Z,45.74
2022-09-28T09:50:47.942Z,45.92
2022-09-28T09:56:26.899Z,45.60
2022-09-28T10:01:49.261Z,45.31
2022-09-28T10:07:20.899Z,45.08
2022-09-28T10:12:42.600Z,44.94
2022-09-28T10:18:10.718Z,45.00
2022-09-28T10:23:36.328Z,44.87
2022-09-28T10:29:01.420Z,44.84
2022-09-28T10:34:29.289Z,45.08
2022-09-28T10:39:55.966Z,44.86
2022-09-28T10:45:23.395Z,44.94
2022-09-28T10:50:58.930Z,44.58
2022-09-28T10:56:22.491Z,44.36
2022-09-28T11:01:44.317Z,44.76
2022-09-28T11:07:25.000Z,44.54
2022-09-28T11:12:48.631Z,44.46
2022-09-28T11:18:25.011Z,44.65
2022-09-28T11:24:19.249Z,44.12
2022-09-28T11:29:43.466Z,44.81
2022-09-28T11:35:05.897Z,44.23
2022-09-28T11:40:27.570Z,44.16
2022-09-28T11:46:01.634Z,44.25
2022-09-28T11:51:36.471Z,44.42
2022-09-28T11:57:02.013Z,44.49
2022-09-28T12:02:49.833Z,44.23
2022-09-28T12:08:29.123Z,44.56
2022-09-28T12:13:54.145Z,44.32
2022-09-28T12:19:21.830Z,44.83
2022-09-28T12:24:47.789Z,44.90
2022-09-28T12:30:19.537Z,44.47
2022-09-28T12:35:59.297Z,44.42
2022-09-28T12:42:05.739Z,44.76
2022-09-28T12:47:54.158Z,44.68
2022-09-28T12:53:30.063Z,44.99
2022-09-28T12:59:29.117Z,45.01
2022-09-28T13:05:24.076Z,45.27
2022-09-28T13:10:52.897Z,45.14
2022-09-28T13:16:33.868Z,44.87
2022-09-28T13:22:13.547Z,45.06
2022-09-28T13:27:40.686Z,44.90
2022-09-28T13:33:05.666Z,45.24
2022-09-28T13:38:27.273Z,45.25
2022-09-28T13:44:06.775Z,44.74
2022-09-28T13:49:37.279Z,45.18
2022-09-28T13:55:11.091Z,45.31
2022-09-28T14:00:46.666Z,44.98
2022-09-28T14:06:20.537Z,44.76
2022-09-28T14:12:46.234Z,44.85
2022-09-28T14:18:29.649Z,45.45
2022-09-28T14:24:09.337Z,45.10
2022-09-28T14:29:34.546Z,44.94
2022-09-28T14:35:00.945Z,45.61
2022-09-28T14:40:49.572Z,45.66
2022-09-28T14:46:11.824Z,45.55
2022-09-28T14:51:35.517Z,45.51
2022-09-28T14:57:23.182Z,44.92
2022-09-28T15:02:50.062Z,44.90
2022-09-28T15:08:12.192Z,45.48
2022-09-28T15:13:34.118Z,45.25
2022-09-28T15:19:13.485Z,44.83
2022-09-28T15:24:35.307Z,45.44
2022-09-28T15:30:00.730Z,45.44
2022-09-28T15:35:27.166Z,45.07
2022-09-28T15:40:49.099Z,45.81
2022-09-28T15:46:15.703Z,46.01
2022-09-28T15:51:52.904Z,46.25
2022-09-28T15:57:33.052Z,46.61
2022-09-28T16:03:22.496Z,46.79
2022-09-28T16:08:46.687Z,46.35
2022-09-28T16:14:24.021Z,46.71
2022-09-28T16:19:48.746Z,46.79
2022-09-28T16:25:20.148Z,47.13
2022-09-28T16:31:00.359Z,47.04
2022-09-28T16:36:23.398Z,46.93
2022-09-28T16:41:59.750Z,46.82
2022-09-28T16:47:21.395Z,46.88
2022-09-28T16:53:02.394Z,46.51
2022-09-28T16:58:25.295Z,46.60
2022-09-28T17:03:48.933Z,46.60
2022-09-28T17:09:13.019Z,46.76
2022-09-28T17:14:34.774Z,46.53
2022-09-28T17:19:59.100Z,46.54
2022-09-28T17:25:23.114Z,46.81
2022-09-28T17:30:45.050Z,47.14
2022-09-28T17:36:07.264Z,46.99
2022-09-28T17:41:29.131Z,47.46
2022-09-28T17:46:51.212Z,47.39
2022-09-28T17:52:13.289Z,47.56
2022-09-28T17:57:34.952Z,47.34
2022-09-28T18:02:58.583Z,47.87
2022-09-28T18:08:21.338Z,47.33
2022-09-28T18:13:46.068Z,47.74
2022-09-28T18:19:07.853Z,47.81
2022-09-28T18:24:30.039Z,47.74
2022-09-28T18:29:51.750Z,48.00
2022-09-28T18:35:13.485Z,47.85
2022-09-28T18:40:36.229Z,47.79
2022-09-28T18:45:58.075Z,47.81
2022-09-28T18:51:20.678Z,48.04
2022-09-28T18:56:42.340Z,48.25
2022-09-28T19:02:04.867Z,47.99
2022-09-28T19:07:27.294Z,48.34
2022-09-28T19:12:49.035Z,48.18
2022-09-28T19:18:10.670Z,48.75
2022-09-28T19:23:33.130Z,48.64
2022-09-28T19:28:58.474Z,48.50
2022-09-28T19:34:20.375Z,48.76
2022-09-28T19:39:42.191Z,49.02
2022-09-28T19:45:10.974Z,48.87
2022-09-28T19:50:33.097Z,48.96
2022-09-28T19:55:56.761Z,49.10
2022-09-28T20:01:18.493Z,49.00
2022-09-28T20:06:40.817Z,48.74
2022-09-28T20:12:02.544Z,48.81
2022-09-28T20:17:24.283Z,48.41
2022-09-28T20:22:46.219Z,48.60
2022-09-28T20:28:08.026Z,48.65
2022-09-28T20:33:31.128Z,48.48
2022-09-28T20:38:54.468Z,48.02
2022-09-28T20:44:16.251Z,48.20
2022-09-28T20:49:38.066Z,48.02
2022-09-28T20:54:59.705Z,48.36
2022-09-28T21:00:21.509Z,48.36
2022-09-28T21:05:43.348Z,48.01
2022-09-28T21:11:05.022Z,47.86
2022-09-28T21:16:28.893Z,48.10
2022-09-28T21:21:51.399Z,47.98
2022-09-28T21:27:13.056Z,48.01
2022-09-28T21:32:35.390Z,48.09
2022-09-28T21:37:57.590Z,48.18
2022-09-28T21:43:19.247Z,48.35
2022-09-28T21:48:41.107Z,47.87
2022-09-28T21:54:02.759Z,48.11
2022-09-28T21:59:25.229Z,48.29
2022-09-28T22:04:47.150Z,48.23
2022-09-28T22:10:13.432Z,48.03
2022-09-28T22:15:35.267Z,48.16
2022-09-28T22:21:09.946Z,48.08
2022-09-28T22:26:33.787Z,47.94
2022-09-28T22:32:02.180Z,47.98
2022-09-28T22:37:26.011Z,47.88
2022-09-28T22:42:47.693Z,47.89
2022-09-28T22:48:10.266Z,47.88
2022-09-28T22:53:33.341Z,47.90
2022-09-28T22:58:55.314Z,48.06
2022-09-28T23:04:16.933Z,47.86
2022-09-28T23:09:38.598Z,47.73
2022-09-28T23:15:00.237Z,47.59
2022-09-28T23:20:22.469Z,48.02
2022-09-28T23:25:44.137Z,47.54
2022-09-28T23:31:18.511Z,47.90
2022-09-28T23:36:40.970Z,47.79
2022-09-28T23:42:03.226Z,47.54
2022-09-28T23:47:24.851Z,47.41
2022-09-28T23:52:48.320Z,47.62
2022-09-28T23:58:11.818Z,47.51
